Terminal Aerodrome Forecast
Issued by NWS Charleston, WV

Current Version | Previous Version | Graphics & Text | Print | Product List | Glossary On
Versions: 1 2 3 4 5 6 7 8 9 10 11 12 13 14 15 16 17 18 19 20 21 22 23 24 25 26
247
FTUS41 KRLX 190852 AAA
TAFCRW
TAF AMD
KCRW 190852Z 1909/2006 20003KT 5SM -SHRA BKN015 OVC030
     FM191000 22003KT P6SM OVC012
     FM192100 24005KT P6SM SCT020=

USA.gov is the U.S. government's official web portal to all federal, state and local government web resources and services.